createdAt,value
2022-12-23T00:01:25.851Z,9.20
2022-12-23T00:03:57.552Z,9.47
2022-12-23T00:06:27.117Z,10.33
2022-12-23T00:08:58.363Z,11.00
2022-12-23T00:11:27.849Z,11.63
2022-12-23T00:14:20.695Z,10.33
2022-12-23T00:16:49.894Z,9.93
2022-12-23T00:19:17.964Z,9.70
2022-12-23T00:21:48.428Z,9.40
2022-12-23T00:24:16.744Z,9.00
2022-12-23T00:26:44.934Z,8.90
2022-12-23T00:29:14.057Z,8.97
2022-12-23T00:31:51.392Z,10.73
2022-12-23T00:34:19.421Z,8.67
2022-12-23T00:36:48.794Z,10.40
2022-12-23T00:39:33.185Z,9.23
2022-12-23T00:42:18.733Z,9.70
2022-12-23T00:44:46.743Z,9.70
2022-12-23T00:47:36.162Z,9.10
2022-12-23T00:50:05.231Z,8.53
2022-12-23T00:52:34.625Z,9.10
2022-12-23T00:55:02.635Z,10.33
2022-12-23T00:57:30.658Z,9.13
2022-12-23T00:59:58.650Z,8.90
2022-12-23T01:02:44.224Z,8.60
2022-12-23T01:05:41.487Z,9.97
2022-12-23T01:08:12.868Z,8.40
2022-12-23T01:10:42.167Z,7.37
2022-12-23T01:13:10.100Z,7.70
2022-12-23T01:15:38.299Z,7.10
2022-12-23T01:18:06.397Z,7.63
2022-12-23T01:20:34.343Z,6.50
2022-12-23T01:23:02.259Z,6.37
2022-12-23T01:25:31.832Z,8.87
2022-12-23T01:27:59.784Z,8.33
2022-12-23T01:30:27.898Z,8.13
2022-12-23T01:32:55.777Z,6.73
2022-12-23T01:35:23.790Z,7.00
2022-12-23T01:37:51.791Z,6.23
2022-12-23T01:40:19.908Z,6.23
2022-12-23T01:42:48.325Z,6.30
2022-12-23T01:45:21.360Z,5.60
2022-12-23T01:47:53.501Z,5.57
2022-12-23T01:50:26.473Z,5.13
2022-12-23T01:53:06.991Z,5.67
2022-12-23T01:55:42.861Z,6.23
2022-12-23T01:58:14.845Z,5.97
2022-12-23T02:01:01.027Z,5.93
2022-12-23T02:03:44.721Z,6.23
2022-12-23T02:06:36.448Z,6.10
2022-12-23T02:09:20.019Z,6.33
2022-12-23T02:12:23.977Z,7.87
2022-12-23T02:15:24.627Z,10.00
2022-12-23T02:18:01.509Z,10.67
2022-12-23T02:20:49.548Z,9.93
2022-12-23T02:23:50.077Z,9.30
2022-12-23T02:27:08.426Z,11.10
2022-12-23T02:30:13.875Z,12.00
2022-12-23T02:33:11.928Z,11.93
2022-12-23T02:35:47.277Z,13.47
2022-12-23T02:38:23.977Z,12.70
2022-12-23T02:40:59.149Z,12.27
2022-12-23T02:43:36.405Z,13.67
2022-12-23T02:46:10.337Z,14.60
2022-12-23T02:48:45.275Z,13.63
2022-12-23T02:51:16.044Z,14.10
2022-12-23T02:53:48.478Z,12.23
2022-12-23T02:56:18.248Z,15.00
2022-12-23T02:58:52.250Z,13.60
2022-12-23T03:01:21.837Z,15.20
2022-12-23T03:03:52.671Z,13.67
2022-12-23T03:06:23.902Z,14.03
2022-12-23T03:08:54.544Z,15.57
2022-12-23T03:11:22.814Z,15.13
2022-12-23T03:14:07.253Z,15.30
2022-12-23T03:16:46.893Z,17.53
2022-12-23T03:19:26.052Z,13.33
2022-12-23T03:22:01.047Z,14.97
2022-12-23T03:24:37.546Z,14.43
2022-12-23T03:27:12.722Z,18.30
2022-12-23T03:29:44.709Z,15.17
2022-12-23T03:32:14.884Z,12.77
2022-12-23T03:34:47.512Z,10.73
2022-12-23T03:37:18.178Z,12.10
2022-12-23T03:39:49.977Z,12.40
2022-12-23T03:42:25.019Z,12.63
2022-12-23T03:45:28.424Z,10.97
2022-12-23T03:47:33.397Z,14.30
2022-12-23T03:50:10.186Z,12.73
2022-12-23T03:52:42.476Z,15.40
2022-12-23T03:55:16.062Z,13.47
2022-12-23T03:57:48.986Z,14.83
2022-12-23T04:00:17.144Z,16.17
2022-12-23T04:02:54.467Z,17.20
2022-12-23T04:05:28.427Z,15.20
2022-12-23T04:08:03.123Z,17.13
2022-12-23T04:10:32.378Z,19.23
2022-12-23T04:13:00.423Z,15.33
2022-12-23T04:15:28.955Z,17.20
2022-12-23T04:17:58.371Z,17.87
2022-12-23T04:20:27.723Z,15.57
2022-12-23T04:22:55.710Z,14.57
2022-12-23T04:25:23.840Z,17.13
2022-12-23T04:27:51.922Z,17.23
2022-12-23T04:30:20.384Z,18.40
2022-12-23T04:32:48.338Z,17.67
2022-12-23T04:35:16.536Z,15.27
2022-12-23T04:37:45.895Z,19.67
2022-12-23T04:40:14.382Z,13.30
2022-12-23T04:42:42.509Z,17.23
2022-12-23T04:45:11.184Z,16.63
2022-12-23T04:47:40.629Z,14.80
2022-12-23T04:50:11.775Z,14.90
2022-12-23T04:52:42.578Z,12.83
2022-12-23T04:55:12.238Z,12.13
2022-12-23T04:57:40.563Z,12.17
2022-12-23T05:00:09.693Z,15.90
2022-12-23T05:02:37.871Z,12.10
2022-12-23T05:05:06.622Z,12.87
2022-12-23T05:07:36.009Z,17.17
2022-12-23T05:10:04.110Z,14.87
2022-12-23T05:12:33.639Z,13.87
2022-12-23T05:15:02.658Z,14.33
2022-12-23T05:17:30.669Z,14.20
2022-12-23T05:19:58.661Z,15.07
2022-12-23T05:22:26.643Z,14.03
2022-12-23T05:24:54.677Z,14.83
2022-12-23T05:27:25.472Z,13.83
2022-12-23T05:29:54.755Z,13.17
2022-12-23T05:32:22.851Z,12.27
2022-12-23T05:34:50.784Z,11.90
2022-12-23T05:37:18.918Z,12.43
2022-12-23T05:39:46.926Z,11.77
2022-12-23T05:42:19.218Z,11.40
2022-12-23T05:44:47.530Z,11.77
2022-12-23T05:47:16.854Z,11.20
2022-12-23T05:49:44.863Z,10.57
2022-12-23T05:52:12.796Z,8.73
2022-12-23T05:54:40.829Z,8.57
2022-12-23T05:57:11.648Z,7.70
2022-12-23T05:59:39.696Z,7.57
2022-12-23T06:02:07.899Z,7.40
2022-12-23T06:04:37.377Z,6.80
2022-12-23T06:07:05.644Z,6.37
2022-12-23T06:09:33.626Z,6.50
2022-12-23T06:12:01.766Z,8.93
2022-12-23T06:14:29.832Z,8.30
2022-12-23T06:16:57.983Z,9.33
2022-12-23T06:19:26.128Z,10.67
2022-12-23T06:21:58.518Z,11.57
2022-12-23T06:24:26.530Z,12.83
2022-12-23T06:26:57.316Z,11.67
2022-12-23T06:29:25.662Z,13.53
2022-12-23T06:31:56.784Z,12.37
2022-12-23T06:34:24.783Z,13.20
2022-12-23T06:36:55.762Z,10.63
2022-12-23T06:39:23.745Z,12.07
2022-12-23T06:41:51.841Z,11.00
2022-12-23T06:44:20.014Z,9.97
2022-12-23T06:46:48.271Z,11.47
2022-12-23T06:49:16.267Z,11.67
2022-12-23T06:51:44.388Z,13.83
2022-12-23T06:54:13.885Z,12.47
2022-12-23T06:56:41.903Z,13.03
2022-12-23T06:59:09.902Z,14.17
2022-12-23T07:01:38.260Z,15.00
2022-12-23T07:04:06.519Z,15.13
2022-12-23T07:06:34.597Z,13.03
2022-12-23T07:09:02.737Z,14.20
2022-12-23T07:11:32.228Z,14.63
2022-12-23T07:14:00.461Z,12.93
2022-12-23T07:16:28.489Z,12.83
2022-12-23T07:18:56.506Z,13.90
2022-12-23T07:21:28.946Z,14.47
2022-12-23T07:23:58.003Z,14.57
2022-12-23T07:26:26.135Z,13.70
2022-12-23T07:28:55.487Z,13.13
2022-12-23T07:31:23.597Z,14.53
2022-12-23T07:33:51.781Z,13.80
2022-12-23T07:36:19.889Z,15.67
2022-12-23T07:38:51.274Z,15.00
2022-12-23T07:41:19.354Z,14.57
2022-12-23T07:43:47.365Z,14.70
2022-12-23T07:46:17.079Z,15.57
2022-12-23T07:48:45.228Z,13.07
2022-12-23T07:51:13.397Z,13.20
2022-12-23T07:53:41.386Z,11.70
2022-12-23T07:56:09.700Z,12.83
2022-12-23T07:58:37.790Z,11.03
2022-12-23T08:01:08.144Z,12.70
2022-12-23T08:03:38.914Z,11.17
2022-12-23T08:06:09.116Z,12.23
2022-12-23T08:08:38.405Z,11.77
2022-12-23T08:11:08.123Z,11.63
2022-12-23T08:13:37.624Z,12.70
2022-12-23T08:16:15.143Z,11.43
2022-12-23T08:18:44.547Z,11.17
2022-12-23T08:21:21.581Z,11.97
2022-12-23T08:23:50.191Z,10.60
2022-12-23T08:26:23.041Z,11.20
2022-12-23T08:28:53.554Z,10.83
2022-12-23T08:31:23.433Z,11.13
2022-12-23T08:33:55.590Z,11.00
2022-12-23T08:36:25.050Z,11.27
2022-12-23T08:38:54.882Z,11.40
2022-12-23T08:41:25.827Z,9.47
2022-12-23T08:43:54.653Z,11.07
2022-12-23T08:46:23.237Z,9.93
2022-12-23T08:48:53.490Z,11.27
2022-12-23T08:51:23.655Z,10.83
2022-12-23T08:53:57.891Z,12.03
2022-12-23T08:56:33.319Z,11.43
2022-12-23T08:59:01.513Z,12.17
2022-12-23T09:01:31.438Z,9.40
2022-12-23T09:04:03.546Z,8.87
2022-12-23T09:06:37.581Z,9.63
2022-12-23T09:09:08.648Z,9.97
2022-12-23T09:11:37.060Z,11.10
2022-12-23T09:14:05.778Z,8.73
2022-12-23T09:16:34.174Z,12.67
2022-12-23T09:19:03.789Z,11.40
2022-12-23T09:21:31.844Z,14.67
2022-12-23T09:23:59.980Z,12.50
2022-12-23T09:26:30.490Z,12.20
2022-12-23T09:28:59.064Z,12.30
2022-12-23T09:31:34.295Z,12.43
2022-12-23T09:34:06.596Z,12.50
2022-12-23T09:36:35.375Z,12.17
2022-12-23T09:39:03.554Z,10.83
2022-12-23T09:41:52.702Z,11.33
2022-12-23T09:44:43.286Z,11.60
2022-12-23T09:47:17.117Z,11.50
2022-12-23T09:49:51.768Z,11.07
2022-12-23T09:52:25.887Z,11.20
2022-12-23T09:54:55.621Z,11.87
2022-12-23T09:57:36.538Z,11.20
2022-12-23T10:00:08.636Z,12.60
2022-12-23T10:03:00.729Z,11.83
2022-12-23T10:05:48.223Z,16.10
2022-12-23T10:08:21.636Z,13.87
2022-12-23T10:10:52.478Z,11.87
2022-12-23T10:13:27.551Z,12.90
2022-12-23T10:15:59.244Z,12.50
2022-12-23T10:18:38.671Z,12.97
2022-12-23T10:21:16.322Z,14.33
2022-12-23T10:23:55.042Z,13.13
2022-12-23T10:26:25.868Z,11.97
2022-12-23T10:29:06.300Z,12.50
2022-12-23T10:31:47.623Z,10.57
2022-12-23T10:34:22.164Z,10.93
2022-12-23T10:36:58.333Z,10.63
2022-12-23T10:39:33.728Z,10.87
2022-12-23T10:42:09.569Z,10.20
2022-12-23T10:45:02.455Z,10.40
2022-12-23T10:47:41.911Z,10.63
2022-12-23T10:50:28.260Z,10.37
2022-12-23T10:53:02.052Z,8.63
2022-12-23T10:55:34.370Z,11.43
2022-12-23T10:58:08.146Z,10.70
2022-12-23T11:00:40.816Z,11.57
2022-12-23T11:03:18.501Z,11.67
2022-12-23T11:05:49.756Z,13.37
2022-12-23T11:08:21.109Z,12.93
2022-12-23T11:10:50.023Z,12.30
2022-12-23T11:13:35.809Z,11.53
2022-12-23T11:16:19.978Z,9.50
2022-12-23T11:19:01.115Z,9.50
2022-12-23T11:21:30.530Z,9.83
2022-12-23T11:24:19.134Z,9.63
2022-12-23T11:26:50.917Z,9.43
2022-12-23T11:29:23.969Z,8.87
2022-12-23T11:31:52.689Z,9.07
2022-12-23T11:34:22.709Z,8.30
2022-12-23T11:36:58.730Z,8.70
2022-12-23T11:39:35.715Z,9.30
2022-12-23T11:42:12.154Z,9.70
2022-12-23T11:44:44.249Z,9.70
2022-12-23T11:47:29.273Z,8.60
2022-12-23T11:49:58.872Z,9.60
2022-12-23T11:52:28.903Z,9.00
2022-12-23T11:55:00.011Z,8.63
2022-12-23T11:57:38.822Z,8.37
2022-12-23T12:00:09.440Z,8.70
2022-12-23T12:02:41.697Z,9.43
2022-12-23T12:05:21.295Z,9.37
2022-12-23T12:07:50.752Z,8.40
2022-12-23T12:10:23.747Z,8.33
2022-12-23T12:12:56.167Z,7.73
2022-12-23T12:15:34.833Z,7.87
2022-12-23T12:18:06.961Z,8.13
2022-12-23T12:20:40.569Z,10.27
2022-12-23T12:23:15.469Z,9.10
2022-12-23T12:25:49.771Z,10.20
2022-12-23T12:28:23.218Z,11.17
2022-12-23T12:30:57.449Z,8.07
2022-12-23T12:33:32.144Z,8.40
2022-12-23T12:36:12.287Z,8.10
2022-12-23T12:38:41.873Z,7.60
2022-12-23T12:41:17.506Z,9.90
2022-12-23T12:43:53.575Z,10.07
2022-12-23T12:46:31.681Z,11.40
2022-12-23T12:49:06.570Z,10.40
2022-12-23T12:51:41.736Z,10.40
2022-12-23T12:54:17.077Z,9.30
2022-12-23T12:56:50.925Z,12.73
2022-12-23T12:59:21.701Z,10.27
2022-12-23T13:02:11.718Z,10.57
2022-12-23T13:05:06.924Z,15.73
2022-12-23T13:07:46.013Z,11.77
2022-12-23T13:10:23.437Z,11.07
2022-12-23T13:12:59.671Z,10.57
2022-12-23T13:15:33.406Z,11.70
2022-12-23T13:18:15.166Z,11.37
2022-12-23T13:20:51.204Z,10.80
2022-12-23T13:23:45.530Z,11.97
2022-12-23T13:26:21.730Z,11.07
2022-12-23T13:29:00.803Z,12.17
2022-12-23T13:31:41.290Z,10.80
2022-12-23T13:34:25.347Z,11.37
2022-12-23T13:37:02.277Z,11.00
2022-12-23T13:39:51.178Z,10.90
2022-12-23T13:42:29.699Z,10.50
2022-12-23T13:47:40.942Z,11.13
2022-12-23T13:50:16.826Z,10.90
2022-12-23T13:53:02.978Z,9.20
2022-12-23T13:55:49.420Z,9.30
2022-12-23T13:58:22.080Z,10.13
2022-12-23T14:00:59.152Z,10.00
2022-12-23T14:03:34.068Z,9.30
2022-12-23T14:06:22.088Z,9.00
2022-12-23T14:08:52.902Z,10.93
2022-12-23T14:11:25.492Z,10.57
2022-12-23T14:13:57.593Z,10.73
2022-12-23T14:16:51.651Z,10.00
2022-12-23T14:19:42.409Z,12.70
2022-12-23T14:22:27.436Z,11.90
2022-12-23T14:25:22.039Z,10.57
2022-12-23T14:28:01.007Z,9.33
2022-12-23T14:30:40.301Z,9.70
2022-12-23T14:33:23.541Z,9.90
2022-12-23T14:35:55.255Z,9.40
2022-12-23T14:38:40.567Z,8.07
2022-12-23T14:41:47.032Z,8.80
2022-12-23T14:44:42.553Z,8.10
2022-12-23T14:47:32.486Z,8.53
2022-12-23T14:50:40.883Z,9.63
2022-12-23T14:53:27.157Z,10.90
2022-12-23T14:56:21.702Z,18.13
2022-12-23T14:59:05.157Z,10.33
2022-12-23T15:01:43.328Z,9.17
2022-12-23T15:04:19.505Z,8.77
2022-12-23T15:06:51.793Z,8.93
2022-12-23T15:09:32.948Z,8.33
2022-12-23T15:12:14.737Z,9.43
2022-12-23T15:14:51.456Z,10.03
2022-12-23T15:17:27.560Z,10.00
2022-12-23T15:20:04.761Z,8.10
2022-12-23T15:22:35.352Z,8.70
2022-12-23T15:25:06.934Z,5.30
2022-12-23T15:27:37.169Z,5.17
2022-12-23T15:30:06.177Z,4.27
2022-12-23T15:32:34.209Z,3.87
2022-12-23T15:35:06.695Z,4.60
2022-12-23T15:37:36.081Z,3.90
2022-12-23T15:40:12.796Z,3.37
2022-12-23T15:42:50.752Z,3.77
2022-12-23T15:45:35.885Z,3.50
2022-12-23T15:48:06.481Z,4.10
2022-12-23T15:50:41.914Z,4.70
2022-12-23T15:53:15.751Z,7.00
2022-12-23T15:55:43.763Z,4.90
2022-12-23T15:58:22.172Z,4.13
2022-12-23T16:00:55.311Z,4.20
2022-12-23T16:03:27.874Z,4.03
2022-12-23T16:06:11.181Z,4.40
2022-12-23T16:08:40.812Z,5.67
2022-12-23T16:11:15.522Z,4.83
2022-12-23T16:13:58.677Z,5.93
2022-12-23T16:16:37.870Z,5.57
2022-12-23T16:19:06.009Z,7.37
2022-12-23T16:21:36.370Z,5.00
2022-12-23T16:24:10.493Z,4.60
2022-12-23T16:26:41.999Z,4.30
2022-12-23T16:29:12.157Z,4.63
2022-12-23T16:31:45.724Z,4.80
2022-12-23T16:34:19.299Z,5.37
2022-12-23T16:36:47.421Z,13.20
2022-12-23T16:39:21.641Z,15.07
2022-12-23T16:41:49.748Z,7.83
2022-12-23T16:44:18.913Z,12.67
2022-12-23T16:46:51.222Z,14.93
2022-12-23T16:49:21.502Z,9.20
2022-12-23T16:51:50.222Z,6.97
2022-12-23T16:54:20.810Z,6.63
2022-12-23T16:56:49.941Z,5.90
2022-12-23T16:59:18.304Z,8.23
2022-12-23T17:01:47.595Z,7.20
2022-12-23T17:04:16.943Z,7.43
2022-12-23T17:06:46.500Z,11.00
2022-12-23T17:09:14.787Z,12.70
2022-12-23T17:11:47.827Z,13.03
2022-12-23T17:14:20.615Z,10.33
2022-12-23T17:16:49.677Z,7.97
2022-12-23T17:19:27.626Z,8.90
2022-12-23T17:22:01.440Z,8.27
2022-12-23T17:24:29.444Z,7.83
2022-12-23T17:26:59.425Z,8.87
2022-12-23T17:29:28.264Z,10.33
2022-12-23T17:31:56.419Z,11.57
2022-12-23T17:34:25.622Z,12.77
2022-12-23T17:36:53.707Z,16.87
2022-12-23T17:39:22.576Z,14.97
2022-12-23T17:41:51.073Z,16.47
2022-12-23T17:44:20.899Z,16.30
2022-12-23T17:46:49.034Z,14.47
2022-12-23T17:49:17.020Z,16.20
2022-12-23T17:51:45.255Z,14.00
2022-12-23T17:54:22.933Z,12.27
2022-12-23T17:57:10.126Z,11.87
2022-12-23T17:59:39.428Z,12.30
2022-12-23T18:02:23.000Z,11.53
2022-12-23T18:04:51.597Z,9.37
2022-12-23T18:07:20.265Z,8.10
2022-12-23T18:10:04.802Z,8.33
2022-12-23T18:12:37.213Z,8.43
2022-12-23T18:15:11.114Z,9.40
2022-12-23T18:17:40.915Z,8.77
2022-12-23T18:20:16.015Z,12.00
2022-12-23T18:22:44.213Z,9.33
2022-12-23T18:25:19.195Z,8.67
2022-12-23T18:27:47.526Z,8.67
2022-12-23T18:30:20.011Z,9.27
2022-12-23T18:32:49.933Z,7.47
2022-12-23T18:35:27.124Z,7.67
2022-12-23T18:37:55.501Z,7.60
2022-12-23T18:40:29.222Z,5.70
2022-12-23T18:43:00.601Z,6.23
2022-12-23T18:45:34.434Z,5.80
2022-12-23T18:48:04.893Z,5.00
2022-12-23T18:50:33.775Z,4.60
2022-12-23T18:53:04.887Z,5.43
2022-12-23T18:55:33.122Z,4.70
2022-12-23T18:58:04.993Z,5.57
2022-12-23T19:00:34.490Z,3.90
2022-12-23T19:03:05.652Z,3.40
2022-12-23T19:05:35.727Z,3.57
2022-12-23T19:08:03.779Z,3.90
2022-12-23T19:10:34.598Z,4.60
2022-12-23T19:13:02.599Z,4.03
2022-12-23T19:15:34.070Z,4.60
2022-12-23T19:18:02.068Z,4.47
2022-12-23T19:20:30.059Z,4.90
2022-12-23T19:22:58.062Z,4.40
2022-12-23T19:25:26.029Z,5.13
2022-12-23T19:27:56.617Z,4.13
2022-12-23T19:30:24.611Z,4.20
2022-12-23T19:32:54.017Z,4.23
2022-12-23T19:35:22.278Z,4.30
2022-12-23T19:37:53.988Z,3.37
2022-12-23T19:40:24.592Z,3.73
2022-12-23T19:42:52.714Z,3.37
2022-12-23T19:45:20.800Z,3.57
2022-12-23T19:47:48.795Z,3.40
2022-12-23T19:50:18.874Z,3.33
2022-12-23T19:52:46.789Z,3.27
2022-12-23T19:55:15.605Z,3.50
2022-12-23T19:57:48.105Z,4.00
2022-12-23T20:00:17.415Z,3.43
2022-12-23T20:02:45.367Z,3.27
2022-12-23T20:05:16.808Z,3.63
2022-12-23T20:07:46.157Z,3.87
2022-12-23T20:10:14.764Z,4.63
2022-12-23T20:12:42.754Z,3.33
2022-12-23T20:15:11.378Z,3.17
2022-12-23T20:17:39.523Z,3.83
2022-12-23T20:20:09.332Z,3.17
2022-12-23T20:22:39.991Z,3.10
2022-12-23T20:25:10.271Z,3.30
2022-12-23T20:27:38.807Z,2.73
2022-12-23T20:30:08.141Z,2.90
2022-12-23T20:32:36.042Z,3.17
2022-12-23T20:35:04.060Z,3.50
2022-12-23T20:37:32.004Z,3.57
2022-12-23T20:40:00.038Z,4.50
2022-12-23T20:42:32.358Z,4.27
2022-12-23T20:45:00.341Z,3.90
2022-12-23T20:47:28.427Z,4.27
2022-12-23T20:49:56.411Z,2.87
2022-12-23T20:52:25.558Z,3.13
2022-12-23T20:54:53.520Z,2.60
2022-12-23T20:57:21.467Z,2.50
2022-12-23T20:59:50.715Z,2.97
2022-12-23T21:02:18.780Z,2.50
2022-12-23T21:04:47.166Z,2.70
2022-12-23T21:07:15.270Z,2.67
2022-12-23T21:09:43.242Z,2.57
2022-12-23T21:12:11.447Z,2.27
2022-12-23T21:14:39.387Z,2.50
2022-12-23T21:17:08.742Z,2.67
2022-12-23T21:19:36.696Z,2.67
2022-12-23T21:22:04.642Z,2.33
2022-12-23T21:24:34.323Z,2.80
2022-12-23T21:27:04.826Z,3.50
2022-12-23T21:29:32.805Z,2.60
2022-12-23T21:32:00.840Z,3.37
2022-12-23T21:34:30.524Z,2.30
2022-12-23T21:36:58.623Z,2.70
2022-12-23T21:39:26.676Z,2.40
2022-12-23T21:41:54.684Z,2.90
2022-12-23T21:44:22.724Z,2.60
2022-12-23T21:46:55.451Z,2.60
2022-12-23T21:49:23.708Z,2.83
2022-12-23T21:51:55.289Z,2.90
2022-12-23T21:54:23.796Z,2.43
2022-12-23T21:56:51.713Z,3.20
2022-12-23T21:59:19.742Z,3.03
2022-12-23T22:01:47.764Z,3.20
2022-12-23T22:04:15.794Z,2.50
2022-12-23T22:06:44.915Z,3.37
2022-12-23T22:09:16.684Z,2.97
2022-12-23T22:11:46.681Z,3.17
2022-12-23T22:14:16.586Z,3.37
2022-12-23T22:16:44.569Z,3.20
2022-12-23T22:19:13.097Z,3.17
2022-12-23T22:21:42.874Z,2.83
2022-12-23T22:24:11.345Z,2.70
2022-12-23T22:26:46.702Z,3.37
2022-12-23T22:29:14.683Z,3.30
2022-12-23T22:31:45.956Z,3.10
2022-12-23T22:34:15.949Z,3.07
2022-12-23T22:36:44.208Z,3.17
2022-12-23T22:39:20.127Z,3.17
2022-12-23T22:41:51.754Z,3.17
2022-12-23T22:44:20.575Z,3.27
2022-12-23T22:46:48.762Z,3.73
2022-12-23T22:49:17.629Z,3.80
2022-12-23T22:51:45.938Z,3.70
2022-12-23T22:54:14.113Z,2.77
2022-12-23T22:56:42.233Z,3.40
2022-12-23T22:59:20.016Z,3.23
2022-12-23T23:01:49.450Z,2.80
2022-12-23T23:04:17.421Z,3.23
2022-12-23T23:06:45.497Z,2.87
2022-12-23T23:09:15.884Z,3.20
2022-12-23T23:11:44.453Z,3.30
2022-12-23T23:14:14.307Z,4.00
2022-12-23T23:16:42.280Z,3.50
2022-12-23T23:19:12.372Z,3.20
2022-12-23T23:21:40.457Z,3.07
2022-12-23T23:24:09.359Z,2.40
2022-12-23T23:26:37.394Z,3.53
2022-12-23T23:29:05.416Z,2.93
2022-12-23T23:31:43.541Z,3.20
2022-12-23T23:34:12.115Z,3.23
2022-12-23T23:36:40.094Z,3.47
2022-12-23T23:39:08.210Z,3.23
2022-12-23T23:41:36.210Z,3.07
2022-12-23T23:44:04.430Z,3.40
2022-12-23T23:46:34.221Z,3.50
2022-12-23T23:49:02.421Z,4.03
2022-12-23T23:51:30.503Z,3.17
2022-12-23T23:53:58.607Z,2.27
2022-12-23T23:56:28.841Z,2.07
2022-12-23T23:59:00.482Z,2.80
